sensor_id;sensor_type;location;lat;lon;timestamp;pressure;altitude;pressure_sealevel;temperature;humidity
3812;BME280;1921;49.368;11.068;2022-11-15T00:00:53;97636.56;;;7.15;100.00
3812;BME280;1921;49.368;11.068;2022-11-15T00:03:26;97527.47;;;6.40;100.00
3812;BME280;1921;49.368;11.068;2022-11-15T00:05:52;97540.00;;;6.53;100.00
3812;BME280;1921;49.368;11.068;2022-11-15T00:08:19;97616.44;;;7.09;100.00
3812;BME280;1921;49.368;11.068;2022-11-15T00:10:59;97585.22;;;6.92;100.00
3812;BME280;1921;49.368;11.068;2022-11-15T00:13:25;97459.06;;;6.25;100.00
3812;BME280;1921;49.368;11.068;2022-11-15T00:15:51;97539.88;;;6.62;100.00
3812;BME280;1921;49.368;11.068;2022-11-15T00:18:18;97561.63;;;6.69;100.00
3812;BME280;1921;49.368;11.068;2022-11-15T00:20:44;97558.78;;;6.55;100.00
3812;BME280;1921;49.368;11.068;2022-11-15T00:23:10;97572.75;;;6.62;100.00
3812;BME280;1921;49.368;11.068;2022-11-15T00:25:36;97592.22;;;6.66;100.00
3812;BME280;1921;49.368;11.068;2022-11-15T00:28:02;97608.63;;;6.74;100.00
3812;BME280;1921;49.368;11.068;2022-11-15T00:30:28;97578.75;;;6.62;100.00
3812;BME280;1921;49.368;11.068;2022-11-15T00:32:54;97561.22;;;6.56;100.00
3812;BME280;1921;49.368;11.068;2022-11-15T00:35:21;97610.50;;;6.90;100.00
3812;BME280;1921;49.368;11.068;2022-11-15T00:37:46;97509.88;;;6.26;100.00
3812;BME280;1921;49.368;11.068;2022-11-15T00:40:14;97567.91;;;6.59;100.00
3812;BME280;1921;49.368;11.068;2022-11-15T00:42:40;97587.78;;;6.58;100.00
3812;BME280;1921;49.368;11.068;2022-11-15T00:45:07;97625.91;;;6.92;100.00
3812;BME280;1921;49.368;11.068;2022-11-15T00:47:33;97582.00;;;6.64;100.00
3812;BME280;1921;49.368;11.068;2022-11-15T00:49:58;97532.94;;;6.37;100.00
3812;BME280;1921;49.368;11.068;2022-11-15T00:52:24;97546.25;;;6.42;100.00
3812;BME280;1921;49.368;11.068;2022-11-15T00:54:50;97531.78;;;6.31;100.00
3812;BME280;1921;49.368;11.068;2022-11-15T00:57:15;97568.63;;;6.51;100.00
3812;BME280;1921;49.368;11.068;2022-11-15T00:59:41;97540.31;;;6.24;100.00
3812;BME280;1921;49.368;11.068;2022-11-15T01:02:07;97543.09;;;6.30;100.00
3812;BME280;1921;49.368;11.068;2022-11-15T01:04:33;97562.16;;;6.47;100.00
3812;BME280;1921;49.368;11.068;2022-11-15T01:06:58;97583.63;;;6.65;100.00
3812;BME280;1921;49.368;11.068;2022-11-15T01:09:24;97562.34;;;6.54;100.00
3812;BME280;1921;49.368;11.068;2022-11-15T01:11:50;97556.03;;;6.56;100.00
3812;BME280;1921;49.368;11.068;2022-11-15T01:14:15;97554.25;;;6.57;100.00
3812;BME280;1921;49.368;11.068;2022-11-15T01:16:41;97541.44;;;6.47;100.00
3812;BME280;1921;49.368;11.068;2022-11-15T01:19:07;97510.84;;;6.25;100.00
3812;BME280;1921;49.368;11.068;2022-11-15T01:21:33;97548.38;;;6.46;100.00
3812;BME280;1921;49.368;11.068;2022-11-15T01:23:58;97569.00;;;6.56;100.00
3812;BME280;1921;49.368;11.068;2022-11-15T01:26:24;97525.25;;;6.27;100.00
3812;BME280;1921;49.368;11.068;2022-11-15T01:28:50;97541.03;;;6.34;100.00
3812;BME280;1921;49.368;11.068;2022-11-15T01:31:20;97546.50;;;6.31;100.00
3812;BME280;1921;49.368;11.068;2022-11-15T01:33:47;97592.31;;;6.56;100.00
3812;BME280;1921;49.368;11.068;2022-11-15T01:36:20;97544.63;;;6.15;100.00
3812;BME280;1921;49.368;11.068;2022-11-15T01:38:52;97576.41;;;6.25;100.00
3812;BME280;1921;49.368;11.068;2022-11-15T01:41:24;97504.91;;;5.71;100.00
3812;BME280;1921;49.368;11.068;2022-11-15T01:43:57;97514.97;;;5.74;100.00
3812;BME280;1921;49.368;11.068;2022-11-15T01:46:45;97579.31;;;6.04;100.00
3812;BME280;1921;49.368;11.068;2022-11-15T01:49:19;97559.56;;;5.85;100.00
3812;BME280;1921;49.368;11.068;2022-11-15T01:51:46;97512.72;;;5.53;100.00
3812;BME280;1921;49.368;11.068;2022-11-15T01:54:17;97559.03;;;5.82;100.00
3812;BME280;1921;49.368;11.068;2022-11-15T01:57:01;97550.53;;;5.72;100.00
3812;BME280;1921;49.368;11.068;2022-11-15T01:59:29;97555.41;;;5.75;100.00
3812;BME280;1921;49.368;11.068;2022-11-15T02:01:55;97468.41;;;5.20;100.00
3812;BME280;1921;49.368;11.068;2022-11-15T02:04:26;97528.66;;;5.66;100.00
3812;BME280;1921;49.368;11.068;2022-11-15T02:06:53;97484.38;;;5.51;100.00
3812;BME280;1921;49.368;11.068;2022-11-15T02:09:19;97523.41;;;5.93;100.00
3812;BME280;1921;49.368;11.068;2022-11-15T02:11:45;97474.78;;;5.61;100.00
3812;BME280;1921;49.368;11.068;2022-11-15T02:14:14;97471.88;;;5.64;100.00
3812;BME280;1921;49.368;11.068;2022-11-15T02:16:54;97546.75;;;6.19;100.00
3812;BME280;1921;49.368;11.068;2022-11-15T02:22:51;97535.31;;;6.30;100.00
3812;BME280;1921;49.368;11.068;2022-11-15T02:25:39;97532.94;;;6.37;100.00
3812;BME280;1921;49.368;11.068;2022-11-15T02:28:39;97449.75;;;5.88;100.00
3812;BME280;1921;49.368;11.068;2022-11-15T02:37:42;97498.00;;;6.41;100.00
3812;BME280;1921;49.368;11.068;2022-11-15T02:43:08;97470.50;;;6.40;100.00
3812;BME280;1921;49.368;11.068;2022-11-15T02:46:05;97444.72;;;6.38;100.00
3812;BME280;1921;49.368;11.068;2022-11-15T02:48:34;97471.84;;;6.52;100.00
3812;BME280;1921;49.368;11.068;2022-11-15T02:51:01;97442.75;;;6.32;100.00
3812;BME280;1921;49.368;11.068;2022-11-15T02:53:27;97432.56;;;6.31;100.00
3812;BME280;1921;49.368;11.068;2022-11-15T02:55:54;97417.59;;;6.16;100.00
3812;BME280;1921;49.368;11.068;2022-11-15T02:58:49;97494.88;;;6.63;100.00
3812;BME280;1921;49.368;11.068;2022-11-15T03:01:37;97490.47;;;6.56;100.00
3812;BME280;1921;49.368;11.068;2022-11-15T03:09:47;97407.97;;;6.01;100.00
3812;BME280;1921;49.368;11.068;2022-11-15T03:15:42;97424.63;;;5.98;100.00
3812;BME280;1921;49.368;11.068;2022-11-15T03:18:41;97434.38;;;6.04;100.00
3812;BME280;1921;49.368;11.068;2022-11-15T03:21:10;97465.22;;;6.24;100.00
3812;BME280;1921;49.368;11.068;2022-11-15T03:23:39;97407.53;;;5.87;100.00
3812;BME280;1921;49.368;11.068;2022-11-15T03:26:09;97383.28;;;5.62;100.00
3812;BME280;1921;49.368;11.068;2022-11-15T03:28:53;97389.19;;;5.73;100.00
3812;BME280;1921;49.368;11.068;2022-11-15T03:31:23;97406.19;;;5.83;100.00
3812;BME280;1921;49.368;11.068;2022-11-15T03:34:27;97460.03;;;6.24;100.00
3812;BME280;1921;49.368;11.068;2022-11-15T03:36:55;97406.56;;;5.88;100.00
3812;BME280;1921;49.368;11.068;2022-11-15T03:39:21;97353.81;;;5.55;100.00
3812;BME280;1921;49.368;11.068;2022-11-15T03:42:20;97451.25;;;6.16;100.00
3812;BME280;1921;49.368;11.068;2022-11-15T03:45:21;97455.63;;;6.16;100.00
3812;BME280;1921;49.368;11.068;2022-11-15T03:48:14;97398.44;;;5.83;100.00
3812;BME280;1921;49.368;11.068;2022-11-15T03:50:42;97414.56;;;5.95;100.00
3812;BME280;1921;49.368;11.068;2022-11-15T03:53:09;97427.25;;;6.06;100.00
3812;BME280;1921;49.368;11.068;2022-11-15T03:55:35;97368.59;;;5.71;100.00
3812;BME280;1921;49.368;11.068;2022-11-15T03:58:01;97353.41;;;5.68;100.00
3812;BME280;1921;49.368;11.068;2022-11-15T04:00:28;97415.25;;;5.79;100.00
3812;BME280;1921;49.368;11.068;2022-11-15T04:02:54;97392.13;;;5.78;100.00
3812;BME280;1921;49.368;11.068;2022-11-15T04:05:20;97416.25;;;5.86;100.00
3812;BME280;1921;49.368;11.068;2022-11-15T04:07:46;97378.88;;;5.55;100.00
3812;BME280;1921;49.368;11.068;2022-11-15T04:10:14;97359.63;;;5.31;100.00
3812;BME280;1921;49.368;11.068;2022-11-15T04:12:43;97419.81;;;5.59;100.00
3812;BME280;1921;49.368;11.068;2022-11-15T04:15:18;97435.81;;;5.63;100.00
3812;BME280;1921;49.368;11.068;2022-11-15T04:17:53;97434.50;;;5.59;100.00
3812;BME280;1921;49.368;11.068;2022-11-15T04:20:23;97437.34;;;5.48;100.00
3812;BME280;1921;49.368;11.068;2022-11-15T04:23:20;97444.28;;;5.47;100.00
3812;BME280;1921;49.368;11.068;2022-11-15T04:26:08;97364.44;;;4.91;100.00
3812;BME280;1921;49.368;11.068;2022-11-15T04:28:35;97388.88;;;4.96;100.00
3812;BME280;1921;49.368;11.068;2022-11-15T04:31:21;97368.72;;;4.82;100.00
3812;BME280;1921;49.368;11.068;2022-11-15T04:33:47;97427.66;;;5.14;100.00
3812;BME280;1921;49.368;11.068;2022-11-15T04:36:12;97427.66;;;5.14;100.00
3812;BME280;1921;49.368;11.068;2022-11-15T04:38:57;97383.72;;;4.78;100.00
3812;BME280;1921;49.368;11.068;2022-11-15T04:41:23;97420.03;;;4.95;100.00
3812;BME280;1921;49.368;11.068;2022-11-15T04:43:49;97430.16;;;4.88;100.00
3812;BME280;1921;49.368;11.068;2022-11-15T04:46:14;97382.50;;;4.55;100.00
3812;BME280;1921;49.368;11.068;2022-11-15T04:48:40;97356.34;;;4.40;100.00
3812;BME280;1921;49.368;11.068;2022-11-15T04:51:06;97343.59;;;4.39;100.00
3812;BME280;1921;49.368;11.068;2022-11-15T04:53:31;97418.34;;;4.85;100.00
3812;BME280;1921;49.368;11.068;2022-11-15T04:55:57;97398.97;;;4.72;100.00
3812;BME280;1921;49.368;11.068;2022-11-15T04:58:23;97407.56;;;4.90;100.00
3812;BME280;1921;49.368;11.068;2022-11-15T05:00:48;97349.53;;;4.67;100.00
3812;BME280;1921;49.368;11.068;2022-11-15T05:03:14;97396.72;;;5.04;100.00
3812;BME280;1921;49.368;11.068;2022-11-15T05:05:58;97411.06;;;5.17;100.00
3812;BME280;1921;49.368;11.068;2022-11-15T05:08:25;97360.19;;;4.99;100.00
3812;BME280;1921;49.368;11.068;2022-11-15T05:10:51;97337.94;;;4.89;100.00
3812;BME280;1921;49.368;11.068;2022-11-15T05:13:17;97337.34;;;4.77;100.00
3812;BME280;1921;49.368;11.068;2022-11-15T05:15:43;97378.31;;;4.90;100.00
3812;BME280;1921;49.368;11.068;2022-11-15T05:18:09;97351.63;;;4.81;100.00
3812;BME280;1921;49.368;11.068;2022-11-15T05:20:35;97333.53;;;4.63;100.00
3812;BME280;1921;49.368;11.068;2022-11-15T05:23:01;97399.53;;;5.11;100.00
3812;BME280;1921;49.368;11.068;2022-11-15T05:25:27;97363.19;;;4.95;100.00
3812;BME280;1921;49.368;11.068;2022-11-15T05:27:52;97360.19;;;4.99;100.00
3812;BME280;1921;49.368;11.068;2022-11-15T05:30:18;97341.50;;;4.88;100.00
3812;BME280;1921;49.368;11.068;2022-11-15T05:32:44;97382.25;;;5.11;100.00
3812;BME280;1921;49.368;11.068;2022-11-15T05:35:20;97345.75;;;4.97;100.00
3812;BME280;1921;49.368;11.068;2022-11-15T05:37:48;97349.84;;;4.99;100.00
3812;BME280;1921;49.368;11.068;2022-11-15T05:40:15;97335.81;;;4.84;100.00
3812;BME280;1921;49.368;11.068;2022-11-15T05:42:40;97402.56;;;5.24;100.00
3812;BME280;1921;49.368;11.068;2022-11-15T05:45:08;97317.59;;;4.68;100.00
3812;BME280;1921;49.368;11.068;2022-11-15T05:47:35;97310.34;;;4.71;100.00
3812;BME280;1921;49.368;11.068;2022-11-15T05:50:03;97255.44;;;4.33;100.00
3812;BME280;1921;49.368;11.068;2022-11-15T05:52:33;97390.75;;;5.22;100.00
3812;BME280;1921;49.368;11.068;2022-11-15T05:55:02;97385.41;;;5.23;100.00
3812;BME280;1921;49.368;11.068;2022-11-15T05:57:28;97376.34;;;5.19;100.00
3812;BME280;1921;49.368;11.068;2022-11-15T05:59:54;97377.13;;;5.20;100.00
3812;BME280;1921;49.368;11.068;2022-11-15T06:02:20;97350.88;;;5.06;100.00
3812;BME280;1921;49.368;11.068;2022-11-15T06:04:46;97386.06;;;5.25;100.00
3812;BME280;1921;49.368;11.068;2022-11-15T06:07:12;97346.34;;;5.08;100.00
3812;BME280;1921;49.368;11.068;2022-11-15T06:09:37;97296.25;;;4.83;100.00
3812;BME280;1921;49.368;11.068;2022-11-15T06:12:03;97349.22;;;5.23;100.00
3812;BME280;1921;49.368;11.068;2022-11-15T06:14:29;97345.09;;;5.12;100.00
3812;BME280;1921;49.368;11.068;2022-11-15T06:16:55;97332.34;;;5.11;100.00
3812;BME280;1921;49.368;11.068;2022-11-15T06:19:21;97316.41;;;4.98;100.00
3812;BME280;1921;49.368;11.068;2022-11-15T06:21:47;97372.38;;;5.33;100.00
3812;BME280;1921;49.368;11.068;2022-11-15T06:24:12;97392.41;;;5.49;100.00
3812;BME280;1921;49.368;11.068;2022-11-15T06:26:38;97306.50;;;4.93;100.00
3812;BME280;1921;49.368;11.068;2022-11-15T06:29:04;97322.66;;;5.13;100.00
3812;BME280;1921;49.368;11.068;2022-11-15T06:31:30;97341.97;;;5.27;100.00
3812;BME280;1921;49.368;11.068;2022-11-15T06:33:56;97320.13;;;5.21;100.00
3812;BME280;1921;49.368;11.068;2022-11-15T06:36:22;97344.03;;;5.41;100.00
3812;BME280;1921;49.368;11.068;2022-11-15T06:38:48;97390.78;;;5.74;100.00
3812;BME280;1921;49.368;11.068;2022-11-15T06:41:14;97379.72;;;5.63;100.00
3812;BME280;1921;49.368;11.068;2022-11-15T06:43:40;97343.72;;;5.44;100.00
3812;BME280;1921;49.368;11.068;2022-11-15T06:46:07;97193.66;;;4.50;100.00
3812;BME280;1921;49.368;11.068;2022-11-15T06:48:34;97325.25;;;5.39;100.00
3812;BME280;1921;49.368;11.068;2022-11-15T06:51:01;97349.38;;;5.65;100.00
3812;BME280;1921;49.368;11.068;2022-11-15T06:53:28;97374.69;;;5.88;100.00
3812;BME280;1921;49.368;11.068;2022-11-15T06:55:59;97360.41;;;5.76;100.00
3812;BME280;1921;49.368;11.068;2022-11-15T06:58:26;97371.88;;;5.99;99.50
3812;BME280;1921;49.368;11.068;2022-11-15T07:00:52;97358.22;;;6.15;98.27
3812;BME280;1921;49.368;11.068;2022-11-15T07:03:17;97411.81;;;6.65;96.38
3812;BME280;1921;49.368;11.068;2022-11-15T07:05:54;97313.00;;;6.01;94.37
3812;BME280;1921;49.368;11.068;2022-11-15T07:08:22;97350.59;;;6.13;94.90
3812;BME280;1921;49.368;11.068;2022-11-15T07:10:48;97371.72;;;6.35;95.95
3812;BME280;1921;49.368;11.068;2022-11-15T07:13:14;97404.53;;;6.68;96.37
3812;BME280;1921;49.368;11.068;2022-11-15T07:15:40;97368.25;;;6.60;95.23
3812;BME280;1921;49.368;11.068;2022-11-15T07:18:06;97336.97;;;6.54;95.14
3812;BME280;1921;49.368;11.068;2022-11-15T07:20:31;97357.25;;;6.83;94.81
3812;BME280;1921;49.368;11.068;2022-11-15T07:23:05;97338.13;;;6.75;93.55
3812;BME280;1921;49.368;11.068;2022-11-15T07:25:31;97309.63;;;6.75;92.12
3812;BME280;1921;49.368;11.068;2022-11-15T07:27:58;97299.59;;;6.81;91.43
3812;BME280;1921;49.368;11.068;2022-11-15T07:30:25;97269.66;;;6.78;90.09
3812;BME280;1921;49.368;11.068;2022-11-15T07:32:59;97310.94;;;7.20;90.10
3812;BME280;1921;49.368;11.068;2022-11-15T07:35:27;97290.38;;;7.27;89.83
3812;BME280;1921;49.368;11.068;2022-11-15T07:38:01;97370.59;;;7.53;89.91
3812;BME280;1921;49.368;11.068;2022-11-15T07:40:30;97287.31;;;7.15;91.17
3812;BME280;1921;49.368;11.068;2022-11-15T07:43:07;97375.22;;;7.90;92.36
3812;BME280;1921;49.368;11.068;2022-11-15T07:45:34;97356.41;;;7.96;92.08
3812;BME280;1921;49.368;11.068;2022-11-15T07:48:05;97280.84;;;7.75;89.05
3812;BME280;1921;49.368;11.068;2022-11-15T07:50:31;97310.38;;;8.13;85.27
3812;BME280;1921;49.368;11.068;2022-11-15T07:52:59;97325.41;;;8.26;86.64
3812;BME280;1921;49.368;11.068;2022-11-15T07:55:27;97333.66;;;8.46;85.54
3812;BME280;1921;49.368;11.068;2022-11-15T07:58:04;97350.06;;;8.77;86.90
3812;BME280;1921;49.368;11.068;2022-11-15T08:00:31;97336.69;;;8.80;83.10
3812;BME280;1921;49.368;11.068;2022-11-15T08:03:09;97376.22;;;9.44;83.83
3812;BME280;1921;49.368;11.068;2022-11-15T08:05:38;97315.59;;;9.21;78.91
3812;BME280;1921;49.368;11.068;2022-11-15T08:08:05;97356.09;;;9.76;78.59
3812;BME280;1921;49.368;11.068;2022-11-15T08:10:32;97309.91;;;9.55;77.52
3812;BME280;1921;49.368;11.068;2022-11-15T08:13:04;97298.06;;;9.67;76.36
3812;BME280;1921;49.368;11.068;2022-11-15T08:15:31;97337.06;;;9.90;76.99
3812;BME280;1921;49.368;11.068;2022-11-15T08:18:00;97312.97;;;10.03;75.50
3812;BME280;1921;49.368;11.068;2022-11-15T08:20:28;97307.03;;;9.80;74.88
3812;BME280;1921;49.368;11.068;2022-11-15T08:22:58;97355.66;;;10.32;74.35
3812;BME280;1921;49.368;11.068;2022-11-15T08:25:26;97329.50;;;10.40;74.54
3812;BME280;1921;49.368;11.068;2022-11-15T08:27:57;97280.00;;;10.25;72.17
3812;BME280;1921;49.368;11.068;2022-11-15T08:30:24;97309.22;;;10.57;72.99
3812;BME280;1921;49.368;11.068;2022-11-15T08:32:51;97301.72;;;10.90;72.32
3812;BME280;1921;49.368;11.068;2022-11-15T08:35:18;97348.09;;;11.58;70.41
3812;BME280;1921;49.368;11.068;2022-11-15T08:37:45;97311.31;;;11.60;68.60
3812;BME280;1921;49.368;11.068;2022-11-15T08:40:11;97305.94;;;11.96;67.71
3812;BME280;1921;49.368;11.068;2022-11-15T08:42:37;97285.00;;;12.31;65.70
3812;BME280;1921;49.368;11.068;2022-11-15T08:45:04;97264.50;;;12.48;64.19
3812;BME280;1921;49.368;11.068;2022-11-15T08:47:29;97193.50;;;12.44;60.43
3812;BME280;1921;49.368;11.068;2022-11-15T08:49:55;97271.47;;;13.22;58.79
3812;BME280;1921;49.368;11.068;2022-11-15T08:52:21;97300.88;;;13.17;58.96
3812;BME280;1921;49.368;11.068;2022-11-15T08:54:47;97311.34;;;13.50;60.51
3812;BME280;1921;49.368;11.068;2022-11-15T08:57:14;97255.06;;;13.79;58.40
3812;BME280;1921;49.368;11.068;2022-11-15T08:59:40;97281.69;;;14.27;56.87
3812;BME280;1921;49.368;11.068;2022-11-15T09:02:06;97277.41;;;14.78;55.00
3812;BME280;1921;49.368;11.068;2022-11-15T09:04:32;97264.34;;;15.46;53.79
3812;BME280;1921;49.368;11.068;2022-11-15T09:06:57;97260.56;;;16.22;52.72
3812;BME280;1921;49.368;11.068;2022-11-15T09:09:23;97259.69;;;17.00;49.38
3812;BME280;1921;49.368;11.068;2022-11-15T09:11:49;97285.19;;;17.41;48.09
3812;BME280;1921;49.368;11.068;2022-11-15T09:14:16;97274.59;;;18.00;46.45
3812;BME280;1921;49.368;11.068;2022-11-15T09:16:42;97270.06;;;18.64;45.68
3812;BME280;1921;49.368;11.068;2022-11-15T09:19:07;97276.03;;;19.55;44.18
3812;BME280;1921;49.368;11.068;2022-11-15T09:21:33;97225.31;;;19.42;40.05
3812;BME280;1921;49.368;11.068;2022-11-15T09:23:59;97250.72;;;19.76;41.55
3812;BME280;1921;49.368;11.068;2022-11-15T09:26:25;97288.72;;;19.03;42.32
3812;BME280;1921;49.368;11.068;2022-11-15T09:28:51;97271.72;;;19.49;41.01
3812;BME280;1921;49.368;11.068;2022-11-15T09:31:17;97263.16;;;19.98;41.42
3812;BME280;1921;49.368;11.068;2022-11-15T09:33:45;97273.47;;;20.92;40.17
3812;BME280;1921;49.368;11.068;2022-11-15T09:36:12;97268.84;;;21.09;39.17
3812;BME280;1921;49.368;11.068;2022-11-15T09:38:38;97196.97;;;20.74;38.60
3812;BME280;1921;49.368;11.068;2022-11-15T09:48:58;97222.75;;;20.29;38.78
3812;BME280;1921;49.368;11.068;2022-11-15T09:51:36;97235.56;;;20.37;39.15
3812;BME280;1921;49.368;11.068;2022-11-15T10:00:19;97265.41;;;21.83;36.83
3812;BME280;1921;49.368;11.068;2022-11-15T10:05:50;97222.13;;;21.83;35.56
3812;BME280;1921;49.368;11.068;2022-11-15T10:08:58;97259.09;;;21.94;36.42
3812;BME280;1921;49.368;11.068;2022-11-15T10:11:31;97203.78;;;21.76;36.55
3812;BME280;1921;49.368;11.068;2022-11-15T10:14:15;97227.97;;;21.85;35.59
3812;BME280;1921;49.368;11.068;2022-11-15T10:17:06;97246.22;;;21.29;37.64
3812;BME280;1921;49.368;11.068;2022-11-15T10:22:46;97214.72;;;22.88;35.11
3812;BME280;1921;49.368;11.068;2022-11-15T10:25:24;97211.47;;;23.47;34.30
3812;BME280;1921;49.368;11.068;2022-11-15T10:28:22;97203.66;;;23.92;32.81
3812;BME280;1921;49.368;11.068;2022-11-15T10:30:53;97203.91;;;23.85;33.50
3812;BME280;1921;49.368;11.068;2022-11-15T10:33:38;97211.63;;;24.51;32.95
3812;BME280;1921;49.368;11.068;2022-11-15T10:44:24;97196.22;;;25.16;32.07
3812;BME280;1921;49.368;11.068;2022-11-15T10:49:30;97161.16;;;25.71;30.84
3812;BME280;1921;49.368;11.068;2022-11-15T10:55:05;97148.97;;;25.17;31.27
3812;BME280;1921;49.368;11.068;2022-11-15T10:57:36;97128.38;;;24.88;30.12
3812;BME280;1921;49.368;11.068;2022-11-15T11:00:27;97169.16;;;25.28;31.15
3812;BME280;1921;49.368;11.068;2022-11-15T11:06:04;97132.38;;;25.68;30.67
3812;BME280;1921;49.368;11.068;2022-11-15T11:08:31;97145.88;;;25.52;30.23
3812;BME280;1921;49.368;11.068;2022-11-15T11:11:00;97070.34;;;24.46;31.01
3812;BME280;1921;49.368;11.068;2022-11-15T11:13:33;97125.03;;;25.07;30.29
3812;BME280;1921;49.368;11.068;2022-11-15T11:19:35;97097.03;;;24.75;30.95
3812;BME280;1921;49.368;11.068;2022-11-15T11:22:17;97157.63;;;24.30;30.83
3812;BME280;1921;49.368;11.068;2022-11-15T11:24:50;97151.59;;;23.34;32.72
3812;BME280;1921;49.368;11.068;2022-11-15T11:27:43;97144.41;;;23.35;32.62
3812;BME280;1921;49.368;11.068;2022-11-15T11:33:24;97150.59;;;23.15;32.94
3812;BME280;1921;49.368;11.068;2022-11-15T11:47:28;97125.91;;;21.50;36.42
3812;BME280;1921;49.368;11.068;2022-11-15T11:50:01;97066.56;;;20.39;37.08
3812;BME280;1921;49.368;11.068;2022-11-15T11:52:48;97124.59;;;20.73;37.91
3812;BME280;1921;49.368;11.068;2022-11-15T11:55:43;97049.47;;;19.93;38.35
3812;BME280;1921;49.368;11.068;2022-11-15T11:58:46;97069.47;;;19.57;38.98
3812;BME280;1921;49.368;11.068;2022-11-15T12:01:37;97040.41;;;19.35;39.34
3812;BME280;1921;49.368;11.068;2022-11-15T12:04:20;97089.69;;;19.24;40.00
3812;BME280;1921;49.368;11.068;2022-11-15T12:17:34;97074.38;;;19.04;40.48
3812;BME280;1921;49.368;11.068;2022-11-15T12:20:06;97045.84;;;18.85;40.59
3812;BME280;1921;49.368;11.068;2022-11-15T12:22:57;97097.28;;;19.16;40.82
3812;BME280;1921;49.368;11.068;2022-11-15T12:31:23;97040.19;;;18.76;41.75
3812;BME280;1921;49.368;11.068;2022-11-15T12:33:56;97051.16;;;18.51;41.90
3812;BME280;1921;49.368;11.068;2022-11-15T12:40:02;97027.25;;;18.96;41.15
3812;BME280;1921;49.368;11.068;2022-11-15T12:59:55;97047.94;;;19.48;40.87
3812;BME280;1921;49.368;11.068;2022-11-15T13:02:42;97027.78;;;18.98;41.41
3812;BME280;1921;49.368;11.068;2022-11-15T13:10:31;97010.25;;;17.86;44.36
3812;BME280;1921;49.368;11.068;2022-11-15T13:13:09;97028.44;;;17.71;44.86
3812;BME280;1921;49.368;11.068;2022-11-15T13:15:56;96887.63;;;16.69;45.17
3812;BME280;1921;49.368;11.068;2022-11-15T13:18:36;96995.38;;;17.23;45.70
3812;BME280;1921;49.368;11.068;2022-11-15T13:21:05;96898.00;;;16.48;46.29
3812;BME280;1921;49.368;11.068;2022-11-15T13:23:54;96990.03;;;17.06;46.61
3812;BME280;1921;49.368;11.068;2022-11-15T13:26:20;97006.84;;;17.17;47.03
3812;BME280;1921;49.368;11.068;2022-11-15T13:28:49;96977.47;;;16.97;47.52
3812;BME280;1921;49.368;11.068;2022-11-15T13:31:36;97054.41;;;17.50;47.90
3812;BME280;1921;49.368;11.068;2022-11-15T13:36:53;96985.44;;;17.13;47.73
3812;BME280;1921;49.368;11.068;2022-11-15T13:39:30;97032.41;;;17.45;48.35
3812;BME280;1921;49.368;11.068;2022-11-15T13:41:58;97000.91;;;17.21;48.27
3812;BME280;1921;49.368;11.068;2022-11-15T13:44:30;97033.81;;;17.47;48.60
3812;BME280;1921;49.368;11.068;2022-11-15T13:47:15;97006.53;;;17.42;48.22
3812;BME280;1921;49.368;11.068;2022-11-15T13:49:41;97020.22;;;17.56;48.29
3812;BME280;1921;49.368;11.068;2022-11-15T13:52:14;96915.63;;;16.99;47.86
3812;BME280;1921;49.368;11.068;2022-11-15T13:54:54;97012.16;;;17.74;47.97
3812;BME280;1921;49.368;11.068;2022-11-15T13:57:26;97022.56;;;17.81;48.03
3812;BME280;1921;49.368;11.068;2022-11-15T14:00:05;96966.06;;;17.48;47.91
3812;BME280;1921;49.368;11.068;2022-11-15T14:02:35;96952.28;;;17.29;47.85
3812;BME280;1921;49.368;11.068;2022-11-15T14:05:22;97015.72;;;17.68;48.45
3812;BME280;1921;49.368;11.068;2022-11-15T14:07:58;96951.47;;;17.29;48.97
3812;BME280;1921;49.368;11.068;2022-11-15T14:10:39;96979.94;;;17.43;48.95
3812;BME280;1921;49.368;11.068;2022-11-15T14:13:26;96983.50;;;17.37;49.26
3812;BME280;1921;49.368;11.068;2022-11-15T14:15:52;96970.00;;;17.05;49.80
3812;BME280;1921;49.368;11.068;2022-11-15T14:18:45;96956.81;;;16.65;50.85
3812;BME280;1921;49.368;11.068;2022-11-15T14:21:11;96934.84;;;16.24;51.88
3812;BME280;1921;49.368;11.068;2022-11-15T14:23:37;96971.56;;;16.31;52.29
3812;BME280;1921;49.368;11.068;2022-11-15T14:26:03;96951.91;;;15.98;53.33
3812;BME280;1921;49.368;11.068;2022-11-15T14:28:33;96968.03;;;15.90;54.14
3812;BME280;1921;49.368;11.068;2022-11-15T14:31:11;97007.03;;;16.05;54.47
3812;BME280;1921;49.368;11.068;2022-11-15T14:33:39;96915.13;;;15.26;55.24
3812;BME280;1921;49.368;11.068;2022-11-15T14:36:19;96954.72;;;15.43;55.46
3812;BME280;1921;49.368;11.068;2022-11-15T14:38:47;96972.09;;;15.44;56.08
3812;BME280;1921;49.368;11.068;2022-11-15T14:41:24;96950.19;;;15.20;56.32
3812;BME280;1921;49.368;11.068;2022-11-15T14:43:52;96960.56;;;15.15;56.75
3812;BME280;1921;49.368;11.068;2022-11-15T14:46:18;96943.38;;;15.01;57.24
3812;BME280;1921;49.368;11.068;2022-11-15T14:48:44;96916.19;;;14.77;57.86
3812;BME280;1921;49.368;11.068;2022-11-15T14:51:17;96936.16;;;14.78;57.99
3812;BME280;1921;49.368;11.068;2022-11-15T14:53:44;96962.22;;;14.79;58.86
3812;BME280;1921;49.368;11.068;2022-11-15T14:56:11;96923.59;;;14.50;59.27
3812;BME280;1921;49.368;11.068;2022-11-15T14:58:37;96958.66;;;14.56;59.51
3812;BME280;1921;49.368;11.068;2022-11-15T15:01:17;96989.50;;;14.60;59.71
3812;BME280;1921;49.368;11.068;2022-11-15T15:03:43;96937.22;;;14.15;60.24
3812;BME280;1921;49.368;11.068;2022-11-15T15:06:09;96922.41;;;14.02;61.31
3812;BME280;1921;49.368;11.068;2022-11-15T15:08:35;96911.19;;;13.70;62.19
3812;BME280;1921;49.368;11.068;2022-11-15T15:11:01;96929.69;;;13.76;62.67
3812;BME280;1921;49.368;11.068;2022-11-15T15:13:27;96947.47;;;13.73;63.66
3812;BME280;1921;49.368;11.068;2022-11-15T15:15:54;96943.19;;;13.54;64.77
3812;BME280;1921;49.368;11.068;2022-11-15T15:18:19;96889.22;;;13.08;65.29
3812;BME280;1921;49.368;11.068;2022-11-15T15:20:57;96927.66;;;13.14;66.15
3812;BME280;1921;49.368;11.068;2022-11-15T15:23:25;96928.72;;;13.07;67.41
3812;BME280;1921;49.368;11.068;2022-11-15T15:25:54;96921.16;;;12.85;68.58
3812;BME280;1921;49.368;11.068;2022-11-15T15:28:20;96912.59;;;12.65;69.32
3812;BME280;1921;49.368;11.068;2022-11-15T15:30:46;96884.16;;;12.30;69.74
3812;BME280;1921;49.368;11.068;2022-11-15T15:33:11;96866.53;;;12.06;70.45
3812;BME280;1921;49.368;11.068;2022-11-15T15:35:37;96861.94;;;11.81;70.95